الصفحة الرئيسية
METAR-TAF:

METAR-TAF

مطار :

Elkhart-Morton County Airport

Elkhart, كانساس, الولايات المتحدة

دائرة عرض: 37-00N, خط طول: 101-54W, ارتفاع: 1099 متر

مراقبة الطقس الحالي

تاريخ ووقت الإصدار 9 دقيقة قبل الساعة 05:15UTC
ريح 4 عقدة من الشرق/الشمال الشرقي
درجة الحرارة 13°درجة مئوية
الرطوبة 82%
ضغط 1021 hPa
الرؤية: 16.1 كم
سماء صافية

METAR: KEHA 210515Z AUTO 07004KT 10SM CLR 13/10 A3015 RMK AO2 T01330095

زمن: 00:24 (05:24 UTC)


TAF: مفقودة

أرصاد الطقس والتوقعات من أكثر من 4000 مطار (تقارير الطقس للمطار METAR والتنبؤ بالطقس بالمطارTAF).

المحطات المتاحة هي النقط الصفراء والحمراء على الخريطة.

حرك المؤشر فوق النقطة لمعرفة اسم المحطة.

ثم انقر لمعرفة أرصاد وتوقعات الطقس.

لتغيير الخارطة: اضغط على الأزرار الخضراء مع رمز الصليب الأسود للتكبير. على الزر الأخضر مع شرطة للتصغير، أو على الأسهم الخضراء للخرائط المجاورة.


METAR-TAF: